Time;durP1;ratioP1;P1;durP2;ratioP2;P2;SDS_P1;SDS_P2;PMS_P1;PMS_P2;Temp;Humidity;BMP_temperature;BMP_pressure;BME280_temperature;BME280_humidity;BME280_pressure;Samples;Min_cycle;Max_cycle;Signal;HPM_P1;HPM_P2
2022/05/18 00:00:56;;;;;;;0.65;0.20;;;12.50;99.90;;;;;;4913226;29;20511;-63
2022/05/18 00:03:31;;;;;;;1.02;0.38;;;12.50;99.90;;;;;;4912865;29;20406;-61
2022/05/18 00:06:00;;;;;;;1.70;0.30;;;12.40;99.90;;;;;;4898746;29;20052;-57
2022/05/18 00:08:35;;;;;;;3.10;0.47;;;12.40;99.90;;;;;;4901097;29;20063;-58
2022/05/18 00:11:07;;;;;;;4.03;1.17;;;12.40;99.90;;;;;;4913954;29;20052;-57
2022/05/18 00:13:36;;;;;;;2.25;0.30;;;12.40;99.90;;;;;;4913779;29;20048;-59
2022/05/18 00:16:04;;;;;;;0.50;0.20;;;12.40;99.90;;;;;;4912950;29;20048;-56
2022/05/18 00:18:33;;;;;;;1.88;0.45;;;12.30;99.90;;;;;;4912928;29;20400;-58
2022/05/18 00:21:00;;;;;;;1.58;0.40;;;12.30;99.90;;;;;;4907794;29;20052;-57
2022/05/18 00:23:28;;;;;;;1.92;0.45;;;12.30;99.90;;;;;;4912771;29;20054;-58
2022/05/18 00:25:56;;;;;;;0.68;0.28;;;12.30;99.90;;;;;;4908174;29;20404;-57
2022/05/18 00:28:24;;;;;;;1.30;0.35;;;12.30;99.90;;;;;;4900035;29;20079;-58
2022/05/18 00:30:52;;;;;;;1.40;0.32;;;12.20;99.90;;;;;;4928404;29;20044;-58
2022/05/18 00:33:20;;;;;;;1.98;0.40;;;12.10;99.90;;;;;;4912554;29;20056;-58
2022/05/18 00:35:48;;;;;;;2.10;0.47;;;12.10;99.90;;;;;;4907029;29;20496;-58
2022/05/18 00:38:15;;;;;;;1.10;0.63;;;12.10;99.90;;;;;;4913454;29;20407;-58
2022/05/18 00:40:49;;;;;;;3.65;0.50;;;12.10;99.90;;;;;;4913502;29;20073;-58
2022/05/18 00:43:34;;;;;;;0.80;0.25;;;12.10;99.90;;;;;;4913607;29;20051;-57
2022/05/18 00:46:04;;;;;;;1.27;0.35;;;12.00;99.90;;;;;;4912481;29;20065;-58
2022/05/18 00:48:33;;;;;;;2.45;0.38;;;12.00;99.90;;;;;;4913417;29;20400;-58
2022/05/18 00:51:04;;;;;;;0.70;0.50;;;12.00;99.90;;;;;;4911251;29;20044;-57
2022/05/18 00:53:41;;;;;;;2.22;0.40;;;11.90;99.90;;;;;;4913660;29;20075;-59
2022/05/18 00:56:15;;;;;;;3.10;0.43;;;11.90;99.90;;;;;;4911299;29;20387;-58
2022/05/18 00:58:54;;;;;;;3.35;0.52;;;11.90;99.90;;;;;;4903989;29;20412;-59
2022/05/18 01:01:24;;;;;;;2.28;0.35;;;11.90;99.90;;;;;;4910874;29;20051;-58
2022/05/18 01:04:12;;;;;;;1.70;0.50;;;11.80;99.90;;;;;;4935664;29;20044;-58
2022/05/18 01:07:02;;;;;;;2.15;0.65;;;11.80;99.90;;;;;;4900121;29;20034;-58
2022/05/18 01:09:52;;;;;;;4.05;0.50;;;11.80;99.90;;;;;;4910896;29;20039;-59
2022/05/18 01:12:21;;;;;;;4.85;1.02;;;11.70;99.90;;;;;;4913191;29;20055;-58
2022/05/18 01:14:58;;;;;;;1.13;0.60;;;11.70;99.90;;;;;;4912113;29;20052;-57
2022/05/18 01:17:30;;;;;;;3.80;1.00;;;11.70;99.90;;;;;;4913058;29;20048;-58
2022/05/18 01:20:01;;;;;;;5.00;0.93;;;11.60;99.90;;;;;;4898126;29;20052;-58
2022/05/18 01:22:39;;;;;;;3.15;0.73;;;11.60;99.90;;;;;;4909834;29;20060;-61
2022/05/18 01:25:37;;;;;;;1.35;0.57;;;11.50;99.90;;;;;;4894197;29;20048;-59
2022/05/18 01:28:06;;;;;;;2.45;0.70;;;11.50;99.90;;;;;;4897176;29;20059;-58
2022/05/18 01:30:36;;;;;;;2.00;0.70;;;11.40;99.90;;;;;;4910078;29;20528;-62
2022/05/18 01:33:06;;;;;;;4.55;0.90;;;11.40;99.90;;;;;;4901447;29;20047;-58
2022/05/18 01:35:38;;;;;;;2.05;0.82;;;11.40;99.90;;;;;;4909681;29;20052;-59
2022/05/18 01:38:06;;;;;;;5.03;1.35;;;11.30;99.90;;;;;;4900908;29;20044;-61
2022/05/18 01:40:45;;;;;;;2.40;0.90;;;11.30;99.90;;;;;;4917181;29;20059;-59
2022/05/18 01:43:35;;;;;;;3.42;1.08;;;11.20;99.90;;;;;;4915844;29;20044;-59
2022/05/18 01:46:11;;;;;;;7.53;1.52;;;11.20;99.90;;;;;;4915816;29;20048;-60
2022/05/18 01:48:45;;;;;;;4.13;1.27;;;11.10;99.90;;;;;;4916906;29;20048;-62
2022/05/18 01:51:25;;;;;;;3.97;1.00;;;11.10;99.90;;;;;;4917808;29;20052;-62
2022/05/18 01:53:53;;;;;;;5.20;0.82;;;11.00;99.90;;;;;;4918093;29;20044;-61
2022/05/18 01:56:21;;;;;;;4.70;1.20;;;11.00;99.90;;;;;;4917610;29;20396;-58
2022/05/18 01:58:48;;;;;;;5.38;0.73;;;10.90;99.90;;;;;;4915970;29;20055;-59
2022/05/18 02:01:16;;;;;;;3.72;0.90;;;10.90;99.90;;;;;;4915757;29;20519;-58
2022/05/18 02:03:44;;;;;;;1.83;0.50;;;10.90;99.90;;;;;;4915130;29;20044;-59
2022/05/18 02:06:11;;;;;;;4.28;0.95;;;10.80;99.90;;;;;;4915715;29;20059;-59
2022/05/18 02:08:41;;;;;;;5.10;0.90;;;10.80;99.90;;;;;;4916597;29;20052;-58
2022/05/18 02:11:13;;;;;;;5.80;0.90;;;10.80;99.90;;;;;;4916821;29;20057;-58
2022/05/18 02:13:41;;;;;;;3.95;0.88;;;10.70;99.90;;;;;;4917372;29;20048;-58
2022/05/18 02:16:10;;;;;;;4.47;0.88;;;10.70;99.90;;;;;;4916482;29;20055;-59
2022/05/18 02:18:37;;;;;;;4.30;1.10;;;10.60;99.90;;;;;;4915334;29;20060;-58
2022/05/18 02:21:08;;;;;;;4.72;1.27;;;10.60;99.90;;;;;;4916837;29;20044;-59
2022/05/18 02:23:41;;;;;;;7.72;1.95;;;10.60;99.90;;;;;;4917321;29;20063;-58
2022/05/18 02:26:14;;;;;;;1.95;0.50;;;10.50;99.90;;;;;;4916260;29;20059;-61
2022/05/18 02:28:43;;;;;;;8.18;1.30;;;10.50;99.90;;;;;;4915438;29;20059;-61
2022/05/18 02:31:12;;;;;;;10.20;1.95;;;10.40;99.90;;;;;;4917230;29;20103;-63
2022/05/18 02:33:40;;;;;;;5.40;1.27;;;10.40;99.90;;;;;;4916113;29;20492;-58
2022/05/18 02:36:10;;;;;;;4.43;1.00;;;10.40;99.90;;;;;;4907658;29;20411;-58
2022/05/18 02:38:40;;;;;;;1.45;0.80;;;10.40;99.90;;;;;;4916077;29;20055;-58
2022/05/18 02:41:08;;;;;;;4.07;1.07;;;10.40;99.90;;;;;;4916217;29;20044;-58
2022/05/18 02:43:38;;;;;;;7.60;1.33;;;10.40;99.90;;;;;;4917032;29;20298;-59
2022/05/18 02:46:14;;;;;;;7.70;1.27;;;10.40;99.90;;;;;;4916957;29;20052;-59
2022/05/18 02:48:42;;;;;;;5.03;1.00;;;10.40;99.90;;;;;;4913225;29;20048;-59
2022/05/18 02:51:11;;;;;;;7.07;1.40;;;10.40;99.90;;;;;;4915598;29;20055;-58
2022/05/18 02:53:39;;;;;;;6.30;1.50;;;10.40;99.90;;;;;;4915585;29;20393;-58
2022/05/18 02:56:09;;;;;;;4.97;1.17;;;10.40;99.90;;;;;;4916100;29;20062;-58
2022/05/18 02:58:47;;;;;;;5.30;1.23;;;10.40;99.90;;;;;;4915032;29;20036;-60
2022/05/18 03:01:26;;;;;;;4.75;1.10;;;10.40;99.90;;;;;;4914039;29;20048;-59
2022/05/18 03:03:55;;;;;;;11.25;1.67;;;10.40;99.90;;;;;;4903895;29;20082;-58
2022/05/18 03:06:25;;;;;;;7.85;1.30;;;10.40;99.90;;;;;;4914964;29;20052;-60
2022/05/18 03:08:53;;;;;;;5.10;1.08;;;10.40;99.90;;;;;;4914802;29;20056;-59
2022/05/18 03:11:21;;;;;;;3.95;1.33;;;10.30;99.90;;;;;;4916604;29;20432;-61
2022/05/18 03:13:49;;;;;;;5.72;1.02;;;10.30;99.90;;;;;;4915755;29;20052;-59
2022/05/18 03:16:17;;;;;;;6.97;1.50;;;10.30;99.90;;;;;;4914746;29;20393;-61
2022/05/18 03:18:45;;;;;;;6.00;1.45;;;10.30;99.90;;;;;;4915532;29;20047;-61
2022/05/18 03:23:59;;;;;;;4.47;1.00;;;10.30;99.90;;;;;;4915900;29;20044;-62
2022/05/18 03:26:26;;;;;;;4.22;1.30;;;10.30;99.90;;;;;;4914120;29;20055;-60
2022/05/18 03:28:55;;;;;;;8.50;1.48;;;10.20;99.90;;;;;;4916244;29;20059;-59
2022/05/18 03:31:24;;;;;;;7.05;1.25;;;10.20;99.90;;;;;;4914930;29;20052;-61
2022/05/18 03:33:58;;;;;;;7.65;1.38;;;10.20;99.90;;;;;;4915226;29;20075;-59
2022/05/18 03:36:26;;;;;;;6.45;1.02;;;10.20;99.90;;;;;;4915011;29;20048;-61
2022/05/18 03:38:54;;;;;;;1.88;0.93;;;10.20;99.90;;;;;;4912964;29;20044;-61
2022/05/18 03:41:22;;;;;;;6.38;1.55;;;10.20;99.90;;;;;;4914282;29;20048;-61
2022/05/18 03:43:50;;;;;;;8.45;1.40;;;10.20;99.90;;;;;;4914048;29;20047;-59
2022/05/18 03:46:18;;;;;;;7.82;1.38;;;10.20;99.90;;;;;;4914758;29;20047;-60
2022/05/18 03:48:46;;;;;;;3.92;1.50;;;10.20;99.90;;;;;;4913858;29;20055;-60
2022/05/18 03:51:18;;;;;;;5.00;1.38;;;10.20;99.90;;;;;;4915914;29;20063;-59
2022/05/18 03:53:46;;;;;;;2.95;1.67;;;10.20;99.90;;;;;;4914006;29;20036;-63
2022/05/18 03:56:15;;;;;;;6.45;1.70;;;10.20;99.90;;;;;;4915091;29;20059;-62
2022/05/18 03:58:43;;;;;;;6.57;2.17;;;10.20;99.90;;;;;;4914475;29;20048;-61
2022/05/18 04:01:11;;;;;;;6.95;2.10;;;10.10;99.90;;;;;;4911324;29;20048;-62
2022/05/18 04:03:44;;;;;;;3.55;1.80;;;10.20;99.90;;;;;;4900143;29;20496;-63
2022/05/18 04:06:14;;;;;;;5.60;1.70;;;10.10;99.90;;;;;;4911600;29;20615;-64
2022/05/18 04:08:41;;;;;;;5.63;3.05;;;10.10;99.90;;;;;;4914213;29;20055;-64
2022/05/18 04:11:10;;;;;;;9.32;2.20;;;10.10;99.90;;;;;;4913395;29;20400;-62
2022/05/18 04:13:38;;;;;;;5.63;1.98;;;10.10;99.90;;;;;;4915547;29;20389;-62
2022/05/18 04:16:06;;;;;;;7.10;2.80;;;10.10;99.90;;;;;;4897658;29;20056;-60
2022/05/18 04:18:33;;;;;;;4.18;1.92;;;10.10;99.90;;;;;;4914513;29;20044;-60
2022/05/18 04:21:02;;;;;;;9.25;2.10;;;10.10;99.90;;;;;;4913808;29;20060;-61
2022/05/18 04:23:30;;;;;;;6.57;1.90;;;10.00;99.90;;;;;;4913429;29;20064;-61
2022/05/18 04:25:57;;;;;;;6.57;1.50;;;10.00;99.90;;;;;;4913953;29;20063;-60
2022/05/18 04:28:25;;;;;;;4.68;1.90;;;10.00;99.90;;;;;;4899907;29;20392;-60
2022/05/18 04:30:53;;;;;;;5.13;1.70;;;10.00;99.90;;;;;;4914841;29;20056;-62
2022/05/18 04:33:23;;;;;;;5.45;1.35;;;10.00;99.90;;;;;;4915448;29;20048;-57
2022/05/18 04:35:51;;;;;;;9.45;2.10;;;9.90;99.90;;;;;;4914322;29;20040;-58
2022/05/18 04:38:20;;;;;;;5.25;2.10;;;9.90;99.90;;;;;;4913169;29;20052;-58
2022/05/18 04:40:54;;;;;;;5.25;1.70;;;9.90;99.90;;;;;;4904556;29;20052;-57
2022/05/18 04:43:22;;;;;;;5.60;1.42;;;9.90;99.90;;;;;;4914221;29;20048;-59
2022/05/18 04:45:51;;;;;;;6.68;1.67;;;9.90;99.90;;;;;;4914236;29;20503;-59
2022/05/18 04:48:22;;;;;;;3.45;1.60;;;9.90;99.90;;;;;;4900351;29;20041;-58
2022/05/18 04:50:50;;;;;;;8.45;2.08;;;9.90;99.90;;;;;;4891770;29;20041;-58
2022/05/18 04:53:18;;;;;;;4.28;1.60;;;9.90;99.90;;;;;;4907324;29;20071;-58
2022/05/18 04:55:47;;;;;;;8.60;3.25;;;9.90;99.90;;;;;;4893301;29;20060;-58
2022/05/18 04:58:15;;;;;;;8.02;2.45;;;9.90;99.90;;;;;;4907003;29;20044;-58
2022/05/18 05:00:44;;;;;;;3.35;1.60;;;9.90;99.90;;;;;;4910960;29;20047;-63
2022/05/18 05:03:12;;;;;;;6.13;1.63;;;9.90;99.90;;;;;;4895635;29;20056;-58
2022/05/18 05:05:39;;;;;;;5.55;1.70;;;10.00;99.90;;;;;;4901945;29;20791;-61
2022/05/18 05:08:10;;;;;;;6.20;2.20;;;10.00;99.90;;;;;;4911210;29;20059;-59
2022/05/18 05:10:37;;;;;;;5.60;1.77;;;10.10;99.90;;;;;;4912217;29;20060;-58
2022/05/18 05:13:05;;;;;;;6.45;1.95;;;10.10;99.90;;;;;;4912410;29;20403;-58
2022/05/18 05:15:33;;;;;;;9.70;2.55;;;10.10;99.90;;;;;;4915999;29;20409;-58
2022/05/18 05:18:00;;;;;;;8.07;2.17;;;10.20;99.90;;;;;;4914878;29;20071;-58
2022/05/18 05:20:28;;;;;;;4.35;2.03;;;10.20;99.90;;;;;;4913340;29;20058;-58
2022/05/18 05:22:56;;;;;;;8.82;2.38;;;10.20;99.90;;;;;;4913332;29;20060;-59
2022/05/18 05:25:23;;;;;;;7.95;1.50;;;10.30;99.90;;;;;;4909678;29;20047;-60
2022/05/18 05:27:53;;;;;;;7.88;2.17;;;10.30;99.90;;;;;;4911930;29;20059;-62
2022/05/18 05:30:20;;;;;;;5.57;1.77;;;10.40;99.90;;;;;;4914392;29;20040;-60
2022/05/18 05:32:48;;;;;;;4.25;1.80;;;10.40;99.90;;;;;;4916622;29;20059;-59
2022/05/18 05:35:16;;;;;;;11.05;2.25;;;10.40;99.90;;;;;;4915620;29;20076;-60
2022/05/18 05:37:43;;;;;;;10.70;2.22;;;10.50;99.90;;;;;;4915353;29;20063;-59
2022/05/18 05:40:11;;;;;;;6.05;2.03;;;10.50;99.90;;;;;;4913821;29;20051;-58
2022/05/18 05:42:40;;;;;;;9.00;1.60;;;10.50;99.90;;;;;;4903291;29;20057;-62
2022/05/18 05:45:09;;;;;;;6.38;2.13;;;10.60;99.90;;;;;;4896117;29;20306;-59
2022/05/18 05:47:36;;;;;;;7.78;1.65;;;10.60;99.90;;;;;;4895003;29;20052;-62
2022/05/18 05:50:12;;;;;;;12.10;2.53;;;10.70;99.90;;;;;;4904863;29;20397;-61
2022/05/18 05:52:40;;;;;;;8.13;1.75;;;10.70;99.90;;;;;;4914325;29;20072;-59
2022/05/18 05:55:08;;;;;;;10.40;1.95;;;10.80;99.90;;;;;;4913833;29;20056;-60
2022/05/18 05:57:36;;;;;;;9.85;2.10;;;10.80;99.90;;;;;;4914193;29;20531;-60
2022/05/18 06:00:04;;;;;;;7.07;2.08;;;10.80;99.90;;;;;;4916271;29;20047;-59
2022/05/18 06:02:38;;;;;;;5.82;1.52;;;10.90;99.90;;;;;;4911028;29;20062;-61
2022/05/18 06:05:06;;;;;;;8.60;2.53;;;10.90;99.90;;;;;;4912051;29;20052;-59
2022/05/18 06:07:34;;;;;;;6.95;1.60;;;11.00;99.90;;;;;;4911293;29;20802;-64
2022/05/18 06:10:02;;;;;;;7.80;1.65;;;11.00;99.90;;;;;;4911815;29;20051;-64
2022/05/18 06:12:30;;;;;;;6.57;2.08;;;11.00;99.90;;;;;;4912587;29;20052;-63
2022/05/18 06:14:58;;;;;;;4.55;1.30;;;11.10;99.90;;;;;;4910436;29;20052;-63
2022/05/18 06:17:26;;;;;;;9.82;2.45;;;11.10;99.90;;;;;;4913973;29;20060;-58
2022/05/18 06:19:54;;;;;;;13.45;2.53;;;11.20;99.90;;;;;;4914228;29;20059;-62
2022/05/18 06:22:21;;;;;;;12.07;2.08;;;11.20;99.90;;;;;;4914250;29;20057;-63
2022/05/18 06:24:51;;;;;;;8.48;1.80;;;11.30;99.90;;;;;;4914460;29;20048;-63
2022/05/18 06:27:20;;;;;;;8.32;1.52;;;11.30;99.90;;;;;;4912797;29;20404;-59
2022/05/18 06:29:48;;;;;;;9.40;2.45;;;11.40;99.90;;;;;;4895210;29;20045;-58
2022/05/18 06:32:17;;;;;;;9.82;1.90;;;11.50;99.90;;;;;;4897873;29;20071;-59
2022/05/18 06:34:45;;;;;;;13.35;3.90;;;11.50;99.90;;;;;;4900333;29;20389;-59
2022/05/18 06:37:13;;;;;;;10.35;2.20;;;11.60;99.90;;;;;;4908993;29;20048;-59
2022/05/18 06:39:41;;;;;;;13.20;1.88;;;11.60;99.90;;;;;;4907773;29;20059;-60
2022/05/18 06:42:08;;;;;;;10.20;2.45;;;11.70;99.90;;;;;;4910633;29;20052;-60
2022/05/18 06:44:44;;;;;;;6.97;2.05;;;11.80;99.90;;;;;;4913902;29;20043;-59
2022/05/18 06:47:12;;;;;;;10.57;2.75;;;11.80;99.90;;;;;;4913579;29;20067;-64
2022/05/18 06:49:41;;;;;;;11.73;2.03;;;11.90;99.90;;;;;;4911699;29;20063;-57
2022/05/18 06:52:11;;;;;;;16.13;2.65;;;12.00;99.90;;;;;;4915168;29;20052;-60
2022/05/18 06:54:39;;;;;;;15.85;2.00;;;12.10;99.90;;;;;;4912737;29;20055;-60
2022/05/18 06:57:20;;;;;;;9.85;2.17;;;12.10;99.90;;;;;;4913531;29;20051;-62
2022/05/18 06:59:48;;;;;;;13.63;2.22;;;12.20;99.90;;;;;;4905477;29;20056;-57
2022/05/18 07:02:16;;;;;;;10.15;1.58;;;12.30;99.90;;;;;;4907164;29;20063;-59
2022/05/18 07:04:44;;;;;;;7.90;1.40;;;12.30;99.90;;;;;;4898436;29;20044;-58
2022/05/18 07:07:18;;;;;;;8.02;1.40;;;12.40;99.90;;;;;;4896633;29;20052;-58
2022/05/18 07:09:45;;;;;;;10.05;1.40;;;12.50;99.90;;;;;;4898953;29;20515;-60
2022/05/18 07:12:13;;;;;;;12.05;1.60;;;12.50;99.90;;;;;;4906581;29;20059;-64
2022/05/18 07:14:41;;;;;;;13.05;1.75;;;12.60;99.90;;;;;;4906034;29;20500;-60
2022/05/18 07:17:08;;;;;;;11.52;1.70;;;12.70;99.90;;;;;;4901233;29;20052;-57
2022/05/18 07:19:36;;;;;;;9.55;2.08;;;12.70;99.90;;;;;;4905069;29;20627;-58
2022/05/18 07:22:05;;;;;;;13.23;1.88;;;12.80;99.90;;;;;;4911555;29;20052;-57
2022/05/18 07:24:32;;;;;;;7.78;1.67;;;12.80;99.90;;;;;;4913144;29;20048;-57
2022/05/18 07:27:00;;;;;;;11.55;1.73;;;12.90;99.90;;;;;;4914440;29;20048;-59
2022/05/18 07:29:28;;;;;;;13.27;1.67;;;13.00;99.90;;;;;;4902622;29;20044;-62
2022/05/18 07:32:14;;;;;;;13.35;1.52;;;13.00;99.90;;;;;;4913109;29;20048;-57
2022/05/18 07:34:44;;;;;;;12.55;3.05;;;13.10;99.90;;;;;;4895890;29;20049;-61
2022/05/18 07:37:12;;;;;;;;;;;13.20;99.90;;;;;;4910465;29;20068;-60
2022/05/18 07:39:40;;;;;;;9.57;2.13;;;13.20;99.90;;;;;;4914503;29;19923;-61
2022/05/18 07:42:08;;;;;;;19.15;2.20;;;13.40;99.90;;;;;;4914725;29;20558;-57
2022/05/18 07:44:37;;;;;;;9.55;1.52;;;13.40;99.90;;;;;;4914222;29;20056;-57
2022/05/18 07:47:06;;;;;;;9.85;1.17;;;13.50;99.90;;;;;;4926637;29;20056;-57
2022/05/18 07:49:36;;;;;;;7.28;1.42;;;13.50;99.90;;;;;;4894091;29;20049;-58
2022/05/18 07:52:05;;;;;;;14.27;2.70;;;13.60;99.90;;;;;;4895342;29;20520;-58
2022/05/18 07:54:33;;;;;;;11.90;1.35;;;13.60;99.90;;;;;;4908816;29;20052;-58
2022/05/18 07:57:07;;;;;;;7.82;1.58;;;13.70;99.90;;;;;;4895526;29;20052;-58
2022/05/18 07:59:35;;;;;;;10.02;1.67;;;13.70;99.90;;;;;;4895303;29;20428;-57
2022/05/18 08:02:03;;;;;;;8.55;1.77;;;13.80;99.90;;;;;;4895186;29;20052;-59
2022/05/18 08:04:31;;;;;;;7.18;1.13;;;13.80;99.90;;;;;;4894428;29;20060;-60
2022/05/18 08:06:59;;;;;;;9.70;1.30;;;13.90;99.90;;;;;;4891943;29;20059;-60
2022/05/18 08:09:27;;;;;;;11.85;1.67;;;14.00;99.90;;;;;;4892169;29;20068;-58
2022/05/18 08:17:48;;;;;;;23.25;4.25;;;14.20;99.90;;;;;;4900181;29;20527;-61
2022/05/18 08:20:20;;;;;;;23.87;4.53;;;14.30;99.90;;;;;;4902589;29;20053;-56
2022/05/18 08:22:48;;;;;;;9.27;2.22;;;14.30;99.90;;;;;;4896072;29;20056;-61
2022/05/18 08:25:16;;;;;;;8.68;1.70;;;14.40;99.90;;;;;;4913746;29;20059;-59
2022/05/18 08:27:47;;;;;;;15.48;1.63;;;14.40;99.90;;;;;;4912208;29;20055;-61
2022/05/18 08:30:19;;;;;;;10.70;1.58;;;14.50;99.90;;;;;;4901350;29;20052;-64
2022/05/18 08:32:47;;;;;;;16.38;3.17;;;14.60;99.90;;;;;;4894724;29;20060;-58
2022/05/18 08:35:15;;;;;;;6.25;1.40;;;14.60;99.90;;;;;;4895073;29;20044;-60
2022/05/18 08:37:48;;;;;;;13.50;1.83;;;14.70;99.90;;;;;;4897345;29;20052;-59
2022/05/18 08:40:28;;;;;;;9.52;1.92;;;14.80;99.90;;;;;;4894786;29;20056;-60
2022/05/18 08:43:01;;;;;;;12.15;2.17;;;14.80;99.90;;;;;;4894819;29;20056;-60
2022/05/18 08:45:35;;;;;;;11.25;2.08;;;14.90;99.90;;;;;;4894818;29;20048;-65
2022/05/18 08:48:23;;;;;;;16.40;3.03;;;15.00;99.90;;;;;;4906908;29;20071;-64
2022/05/18 08:50:54;;;;;;;13.40;2.17;;;15.00;99.90;;;;;;4917395;29;20055;-61
2022/05/18 08:53:41;;;;;;;8.23;1.58;;;15.00;99.90;;;;;;4911671;29;20051;-64
2022/05/18 08:56:28;;;;;;;5.65;2.10;;;15.10;99.90;;;;;;4898689;29;20056;-64
2022/05/18 08:58:56;;;;;;;15.60;1.60;;;15.20;99.90;;;;;;4912275;29;20063;-60
2022/05/18 09:01:36;;;;;;;9.13;1.77;;;15.20;99.90;;;;;;4917489;29;20070;-61
2022/05/18 09:04:18;;;;;;;13.00;1.60;;;15.30;99.90;;;;;;4917379;29;20060;-59
2022/05/18 09:07:01;;;;;;;9.52;1.65;;;15.40;99.90;;;;;;4917262;29;20063;-61
2022/05/18 09:12:24;;;;;;;12.32;2.40;;;15.60;99.90;;;;;;4898107;29;20053;-63
2022/05/18 09:14:53;;;;;;;9.50;2.28;;;15.80;99.90;;;;;;4900029;29;20500;-60
2022/05/18 09:17:26;;;;;;;5.82;1.35;;;16.00;99.90;;;;;;4912042;29;20048;-61
2022/05/18 09:20:29;;;;;;;9.52;1.88;;;16.10;99.90;;;;;;4913950;29;20400;-63
2022/05/18 09:23:17;;;;;;;8.93;2.38;;;16.20;99.90;;;;;;4914089;29;20048;-66
2022/05/18 09:25:55;;;;;;;13.30;3.92;;;16.20;99.90;;;;;;4909878;29;20040;-62
2022/05/18 09:28:34;;;;;;;7.60;1.33;;;16.20;99.90;;;;;;4911416;29;20055;-64
2022/05/18 09:31:33;;;;;;;10.15;1.73;;;16.20;99.90;;;;;;4898320;29;20064;-63
2022/05/18 09:34:10;;;;;;;7.97;1.60;;;16.20;99.90;;;;;;4897995;29;20489;-63
2022/05/18 09:36:44;;;;;;;13.85;1.77;;;16.20;99.90;;;;;;4897122;29;20060;-59
2022/05/18 09:39:18;;;;;;;15.88;1.92;;;16.40;99.90;;;;;;4906645;29;20392;-59
2022/05/18 09:42:14;;;;;;;11.18;1.80;;;16.50;99.90;;;;;;4897571;29;20400;-58
2022/05/18 09:45:08;;;;;;;7.10;2.00;;;16.70;99.90;;;;;;4908840;29;20203;-64
2022/05/18 09:47:42;;;;;;;4.95;2.03;;;16.90;99.90;;;;;;4914998;29;20048;-58
2022/05/18 09:50:11;;;;;;;8.93;1.90;;;17.00;99.90;;;;;;4916357;29;20048;-58
2022/05/18 09:52:42;;;;;;;13.45;1.77;;;17.10;99.90;;;;;;4915007;29;20048;-59
2022/05/18 09:55:14;;;;;;;7.88;1.77;;;17.20;99.90;;;;;;4907376;29;20492;-60
2022/05/18 09:58:06;;;;;;;6.53;1.42;;;17.30;99.90;;;;;;4915233;29;20044;-58
2022/05/18 10:00:36;;;;;;;9.30;1.42;;;17.30;99.90;;;;;;4914619;29;20492;-59
2022/05/18 10:09:13;;;;;;;9.90;2.03;;;17.00;99.90;;;;;;4907895;29;20499;-58
2022/05/18 10:11:42;;;;;;;7.40;1.77;;;17.00;99.90;;;;;;4915960;29;20052;-61
2022/05/18 10:14:15;;;;;;;4.32;1.15;;;17.00;99.90;;;;;;4899141;29;20044;-61
2022/05/18 10:16:59;;;;;;;6.30;1.52;;;17.10;99.90;;;;;;4904248;29;20503;-62
2022/05/18 10:19:43;;;;;;;12.85;1.98;;;17.10;99.90;;;;;;4898511;29;20147;-63
2022/05/18 10:22:13;;;;;;;5.90;1.58;;;17.20;99.90;;;;;;4896960;29;20078;-60
2022/05/18 10:25:03;;;;;;;13.32;1.83;;;17.30;99.90;;;;;;4906203;29;20051;-61
2022/05/18 10:27:37;;;;;;;8.50;1.65;;;17.30;99.90;;;;;;4914472;29;20055;-60
2022/05/18 10:30:05;;;;;;;7.40;1.50;;;17.30;99.90;;;;;;4915644;29;20044;-60
2022/05/18 10:32:33;;;;;;;8.27;1.58;;;17.40;99.90;;;;;;4914330;29;20055;-60
2022/05/18 10:35:01;;;;;;;12.43;2.15;;;17.60;99.90;;;;;;4904556;29;20051;-61
2022/05/18 10:37:33;;;;;;;13.85;2.15;;;17.70;99.90;;;;;;4898948;29;20067;-61
2022/05/18 10:40:11;;;;;;;7.65;1.95;;;17.70;99.90;;;;;;4902186;29;20138;-60
2022/05/18 10:42:53;;;;;;;6.63;1.60;;;17.80;99.90;;;;;;4896851;29;20480;-60
2022/05/18 11:12:03;;;;;;;6.35;1.60;;;18.40;99.90;;;;;;5040373;28;20932;-62
2022/05/18 11:14:50;;;;;;;10.30;2.58;;;19.10;99.90;;;;;;5042928;28;20048;-62
2022/05/18 11:17:55;;;;;;;14.85;2.20;;;19.00;99.90;;;;;;5042316;28;20792;-63
2022/05/18 11:20:59;;;;;;;11.75;2.65;;;18.90;99.90;;;;;;5028456;28;20597;-61
2022/05/18 11:24:06;;;;;;;8.50;1.30;;;19.00;99.90;;;;;;5030051;28;20381;-61
2022/05/18 11:27:00;;;;;;;8.63;1.60;;;19.10;99.90;;;;;;5023148;28;20053;-62
2022/05/18 11:29:46;;;;;;;6.78;1.42;;;19.20;99.90;;;;;;5028932;28;20060;-59
2022/05/18 11:32:49;;;;;;;12.15;2.03;;;19.30;99.90;;;;;;5041786;28;20045;-62
2022/05/18 11:35:34;;;;;;;9.30;1.17;;;19.30;99.90;;;;;;4998942;28;20052;-62
2022/05/18 11:38:20;;;;;;;9.00;1.65;;;19.50;99.90;;;;;;5042269;28;20060;-62
2022/05/18 11:40:56;;;;;;;7.55;1.85;;;19.30;99.90;;;;;;5042931;28;20049;-63
2022/05/18 11:43:38;;;;;;;11.18;2.20;;;19.30;99.90;;;;;;5042987;28;20466;-63
2022/05/18 11:46:45;;;;;;;8.00;1.77;;;19.10;99.90;;;;;;5036449;28;20045;-62
2022/05/18 11:49:33;;;;;;;8.45;1.35;;;18.90;99.90;;;;;;5034323;28;20041;-62
2022/05/18 11:52:19;;;;;;;4.90;1.30;;;18.70;99.90;;;;;;5040418;28;20041;-63
2022/05/18 11:55:09;;;;;;;8.60;1.77;;;18.90;99.90;;;;;;5038830;28;20041;-62
2022/05/18 11:58:14;;;;;;;7.32;1.20;;;19.20;99.90;;;;;;5041669;28;20084;-62
2022/05/18 12:00:57;;;;;;;8.95;1.73;;;19.60;99.90;;;;;;5070485;28;20598;-62
2022/05/18 12:03:59;;;;;;;6.20;1.27;;;20.10;99.90;;;;;;5021534;28;20041;-62
2022/05/18 12:06:41;;;;;;;9.70;1.63;;;20.60;99.50;;;;;;5020787;28;20038;-59
2022/05/18 12:09:26;;;;;;;6.10;1.60;;;20.90;99.40;;;;;;5022712;28;20397;-61
2022/05/18 12:12:23;;;;;;;8.98;1.70;;;21.00;97.10;;;;;;5004852;28;20042;-61
2022/05/18 12:15:04;;;;;;;8.93;1.30;;;20.80;97.30;;;;;;4989119;28;20512;-59
2022/05/18 12:17:53;;;;;;;10.93;1.95;;;20.60;97.30;;;;;;4990121;28;20045;-61
2022/05/18 12:20:33;;;;;;;10.98;1.38;;;20.40;97.00;;;;;;4976470;28;20054;-62
2022/05/18 12:23:10;;;;;;;11.27;1.65;;;20.40;98.40;;;;;;5009650;28;20042;-61
2022/05/18 12:25:38;;;;;;;5.65;1.08;;;20.80;97.40;;;;;;5007464;28;20045;-62
2022/05/18 12:28:08;;;;;;;19.17;1.60;;;21.10;96.00;;;;;;5006079;28;20405;-64
2022/05/18 12:30:40;;;;;;;4.88;1.20;;;21.30;95.60;;;;;;5009172;28;20528;-64
2022/05/18 12:33:09;;;;;;;4.85;1.35;;;21.30;93.50;;;;;;5007451;28;20046;-62
2022/05/18 12:36:03;;;;;;;7.57;1.88;;;21.40;94.00;;;;;;5008448;28;20077;-64
2022/05/18 12:39:05;;;;;;;11.52;1.60;;;21.60;93.40;;;;;;5007563;28;20053;-62
2022/05/18 12:41:33;;;;;;;8.90;1.67;;;21.70;93.00;;;;;;5002867;28;20050;-62
2022/05/18 12:44:12;;;;;;;8.60;2.15;;;21.80;90.60;;;;;;5006365;28;20041;-62
2022/05/18 12:46:51;;;;;;;8.45;1.75;;;21.80;90.80;;;;;;5000398;28;20417;-62
2022/05/18 12:49:39;;;;;;;9.23;1.50;;;21.80;91.20;;;;;;4990020;28;20371;-62
2022/05/18 12:52:42;;;;;;;6.72;1.65;;;21.90;91.60;;;;;;4989376;28;20049;-63
2022/05/18 12:55:23;;;;;;;10.25;1.65;;;21.90;91.30;;;;;;4994545;28;20370;-62
2022/05/18 12:57:54;;;;;;;14.85;1.98;;;22.00;90.90;;;;;;4996966;28;20440;-62
2022/05/18 13:00:24;;;;;;;8.25;1.52;;;22.00;90.10;;;;;;4992915;28;20060;-63
2022/05/18 13:02:55;;;;;;;6.05;1.23;;;22.00;90.40;;;;;;5001763;28;20061;-62
2022/05/18 13:05:26;;;;;;;6.75;1.30;;;22.00;87.80;;;;;;4996599;28;20066;-62
2022/05/18 13:08:00;;;;;;;7.10;1.48;;;22.00;89.20;;;;;;5008550;28;20053;-59
2022/05/18 13:10:34;;;;;;;13.07;1.90;;;22.00;88.60;;;;;;4999918;28;20050;-58
2022/05/18 13:13:25;;;;;;;7.05;1.33;;;21.90;87.30;;;;;;5008309;28;20056;-61
2022/05/18 13:16:00;;;;;;;8.40;1.52;;;21.80;85.70;;;;;;5007626;28;20046;-60
2022/05/18 13:18:30;;;;;;;6.32;1.40;;;21.70;87.10;;;;;;5008536;28;20402;-60
2022/05/18 13:21:07;;;;;;;12.18;1.92;;;21.80;88.90;;;;;;5007428;28;20056;-59
2022/05/18 13:24:02;;;;;;;7.32;1.30;;;21.70;88.20;;;;;;5016918;28;20386;-59
2022/05/18 13:26:43;;;;;;;6.82;1.40;;;21.60;89.60;;;;;;4988537;28;20413;-62
2022/05/18 13:29:17;;;;;;;7.93;1.60;;;21.40;89.40;;;;;;5007748;28;20042;-62
2022/05/18 13:31:51;;;;;;;7.43;1.67;;;21.30;90.20;;;;;;5022634;28;20045;-61
2022/05/18 13:34:22;;;;;;;8.38;1.50;;;21.30;87.80;;;;;;5027929;28;20049;-61
2022/05/18 13:36:56;;;;;;;9.23;1.98;;;21.20;86.40;;;;;;5027761;28;20045;-61
2022/05/18 13:39:33;;;;;;;8.18;1.50;;;21.10;89.20;;;;;;5022791;28;20056;-60
2022/05/18 13:42:13;;;;;;;10.90;2.13;;;21.00;90.20;;;;;;5004833;28;20045;-62
2022/05/18 13:44:42;;;;;;;10.35;1.50;;;21.00;90.60;;;;;;5004828;28;20481;-61
2022/05/18 13:47:15;;;;;;;10.32;2.00;;;20.90;90.40;;;;;;4999187;28;20405;-61
2022/05/18 13:49:43;;;;;;;6.10;1.48;;;20.90;90.30;;;;;;5001645;28;20524;-61
2022/05/18 13:52:33;;;;;;;8.60;2.00;;;20.80;87.80;;;;;;5005909;28;20054;-62
2022/05/18 13:55:03;;;;;;;;;;;20.80;87.80;;;;;;4993284;28;20049;-61
2022/05/18 13:58:02;;;;;;;7.70;1.30;;;20.70;89.60;;;;;;4993731;28;19936;-61
2022/05/18 14:00:33;;;;;;;7.88;1.70;;;20.80;90.00;;;;;;5005005;28;20053;-61
2022/05/18 14:03:02;;;;;;;8.50;1.45;;;20.80;90.40;;;;;;5010220;28;20037;-61